createdAt,value
2018-09-04T00:00:38.218Z,88.45
2018-09-04T00:05:35.617Z,90.56
2018-09-04T00:10:33.048Z,91.25
2018-09-04T00:15:30.455Z,89.32
2018-09-04T00:20:27.903Z,89.18
2018-09-04T00:25:25.287Z,90.57
2018-09-04T00:30:22.683Z,90.81
2018-09-04T00:35:20.068Z,91.30
2018-09-04T00:40:17.475Z,89.45
2018-09-04T00:45:14.922Z,87.21
2018-09-04T00:50:13.958Z,86.51
2018-09-04T00:55:12.052Z,85.56
2018-09-04T01:00:09.451Z,86.06
2018-09-04T01:05:06.859Z,85.33
2018-09-04T01:10:04.247Z,85.20
2018-09-04T01:15:01.691Z,85.61
2018-09-04T01:19:59.111Z,85.80
2018-09-04T01:24:56.531Z,86.05
2018-09-04T01:29:54.447Z,86.94
2018-09-04T01:34:51.978Z,87.33
2018-09-04T01:39:49.371Z,87.65
2018-09-04T01:44:46.746Z,87.86
2018-09-04T01:49:44.127Z,86.71
2018-09-04T01:54:41.518Z,87.00
2018-09-04T01:59:38.959Z,86.31
2018-09-04T02:04:36.347Z,86.47
2018-09-04T02:09:33.795Z,86.70
2018-09-04T02:14:31.180Z,87.08
2018-09-04T02:19:28.614Z,86.74
2018-09-04T02:24:26.341Z,86.77
2018-09-04T02:29:23.887Z,87.19
2018-09-04T02:34:22.079Z,86.43
2018-09-04T02:39:19.512Z,87.14
2018-09-04T02:44:16.967Z,86.23
2018-09-04T02:49:14.380Z,86.42
2018-09-04T02:54:11.828Z,87.12
2018-09-04T02:59:09.291Z,87.98
2018-09-04T03:04:06.783Z,88.17
2018-09-04T03:09:05.884Z,88.29
2018-09-04T03:14:03.300Z,87.30
2018-09-04T03:19:00.724Z,87.42
2018-09-04T03:23:58.123Z,88.16
2018-09-04T03:28:55.543Z,88.49
2018-09-04T03:33:53.220Z,88.55
2018-09-04T03:38:51.984Z,87.53
2018-09-04T03:43:50.163Z,88.52
2018-09-04T03:48:48.356Z,89.26
2018-09-04T03:53:45.798Z,89.90
2018-09-04T03:58:43.915Z,90.89
2018-09-04T04:03:41.318Z,90.66
2018-09-04T04:08:38.823Z,91.31
2018-09-04T04:13:36.219Z,90.42
2018-09-04T04:18:33.694Z,89.27
2018-09-04T04:23:31.701Z,90.89
2018-09-04T04:28:29.124Z,91.18
2018-09-04T04:33:27.591Z,92.12
2018-09-04T04:38:25.100Z,91.56
2018-09-04T04:43:22.509Z,92.39
2018-09-04T04:48:20.050Z,92.52
2018-09-04T04:53:17.352Z,91.67
2018-09-04T04:58:14.751Z,90.98
2018-09-04T05:03:12.896Z,91.34
2018-09-04T05:08:10.327Z,92.57
2018-09-04T05:13:07.839Z,92.55
2018-09-04T05:18:05.307Z,92.22
2018-09-04T05:23:02.730Z,90.71
2018-09-04T05:28:00.114Z,88.83
2018-09-04T05:33:09.420Z,90.17
2018-09-04T05:38:06.920Z,90.91
2018-09-04T05:43:06.227Z,89.04
2018-09-04T05:48:07.548Z,88.67
2018-09-04T05:53:04.996Z,89.14
2018-09-04T05:58:02.430Z,88.92
2018-09-04T06:02:59.868Z,89.39
2018-09-04T06:07:57.807Z,86.07
2018-09-04T06:12:55.219Z,81.41
2018-09-04T06:17:52.611Z,83.26
2018-09-04T06:22:51.115Z,83.71
2018-09-04T06:27:48.544Z,83.73
2018-09-04T06:32:46.036Z,82.59
2018-09-04T06:37:43.474Z,83.29
2018-09-04T06:42:40.891Z,82.69
2018-09-04T06:47:38.580Z,82.21
2018-09-04T06:52:37.007Z,81.70
2018-09-04T06:57:34.406Z,82.61
2018-09-04T07:02:31.803Z,81.75
2018-09-04T07:07:29.169Z,82.00
2018-09-04T07:12:26.537Z,80.58
2018-09-04T07:17:23.916Z,76.54
2018-09-04T07:22:22.878Z,78.37
2018-09-04T07:27:20.239Z,77.91
2018-09-04T07:32:17.656Z,76.38
2018-09-04T07:37:15.155Z,77.14
2018-09-04T07:42:12.555Z,77.89
2018-09-04T07:47:09.940Z,76.71
2018-09-04T07:52:15.980Z,75.55
2018-09-04T07:57:13.411Z,76.67
2018-09-04T08:02:10.876Z,75.79
2018-09-04T08:07:08.278Z,76.40
2018-09-04T08:12:06.643Z,76.31
2018-09-04T08:17:04.081Z,74.69
2018-09-04T08:22:04.241Z,78.12
2018-09-04T08:27:01.660Z,76.58
2018-09-04T08:31:59.070Z,76.58
2018-09-04T08:36:56.463Z,76.13
2018-09-04T08:41:53.878Z,76.56
2018-09-04T08:46:51.268Z,73.68
2018-09-04T08:51:56.903Z,73.39
2018-09-04T08:56:56.102Z,74.40
2018-09-04T09:01:53.530Z,75.82
2018-09-04T09:06:51.318Z,75.27
2018-09-04T09:11:48.755Z,72.51
2018-09-04T09:16:46.180Z,73.67
2018-09-04T09:21:48.834Z,72.19
2018-09-04T09:26:46.320Z,69.80
2018-09-04T09:31:43.756Z,65.82
2018-09-04T09:36:41.323Z,66.70
2018-09-04T09:41:41.565Z,66.97
2018-09-04T09:46:44.515Z,67.21
2018-09-04T09:51:45.113Z,64.42
2018-09-04T09:56:45.217Z,65.95
2018-09-04T10:01:48.347Z,66.07
2018-09-04T10:06:45.771Z,67.83
2018-09-04T10:11:46.701Z,66.77
2018-09-04T10:16:47.298Z,62.72
2018-09-04T10:21:51.490Z,63.56
2018-09-04T10:26:51.483Z,62.76
2018-09-04T10:31:51.124Z,63.44
2018-09-04T10:36:48.666Z,63.84
2018-09-04T10:41:46.102Z,62.32
2018-09-04T10:46:43.496Z,60.46
2018-09-04T10:51:42.279Z,59.82
2018-09-04T10:56:39.844Z,58.64
2018-09-04T11:01:37.487Z,52.21
2018-09-04T11:06:36.999Z,50.19
2018-09-04T11:11:34.403Z,48.58
2018-09-04T11:16:31.835Z,47.54
2018-09-04T11:21:29.281Z,47.07
2018-09-04T11:26:26.673Z,47.21
2018-09-04T11:31:24.164Z,47.43
2018-09-04T11:36:21.712Z,45.47
2018-09-04T11:41:19.246Z,45.88
2018-09-04T11:46:17.274Z,49.02
2018-09-04T11:51:14.795Z,49.94
2018-09-04T11:56:15.829Z,51.33
2018-09-04T12:01:14.635Z,50.69
2018-09-04T12:06:12.099Z,49.36
2018-09-04T12:11:09.584Z,47.91
2018-09-04T12:16:07.034Z,46.04
2018-09-04T12:21:11.620Z,43.88
2018-09-04T12:26:10.942Z,47.37
2018-09-04T12:31:09.771Z,47.59
2018-09-04T12:36:07.326Z,47.99
2018-09-04T12:41:10.606Z,47.40
2018-09-04T12:46:07.987Z,47.56
2018-09-04T12:51:07.315Z,49.01
2018-09-04T12:56:04.718Z,45.75
2018-09-04T13:01:02.127Z,45.44
2018-09-04T13:05:59.590Z,43.45
2018-09-04T13:10:57.074Z,42.48
2018-09-04T13:15:56.075Z,43.59
2018-09-04T13:20:58.274Z,43.62
2018-09-04T13:25:55.744Z,42.99
2018-09-04T13:30:53.220Z,42.21
2018-09-04T13:35:50.684Z,42.63
2018-09-04T13:40:48.239Z,43.50
2018-09-04T13:45:46.676Z,42.99
2018-09-04T13:50:44.115Z,43.35
2018-09-04T13:55:42.010Z,42.08
2018-09-04T14:00:39.937Z,42.97
2018-09-04T14:05:38.613Z,45.24
2018-09-04T14:10:36.067Z,44.64
2018-09-04T14:15:33.523Z,42.30
2018-09-04T14:20:31.071Z,42.54
2018-09-04T14:25:28.541Z,42.96
2018-09-04T14:30:26.034Z,41.36
2018-09-04T14:35:23.423Z,41.39
2018-09-04T14:40:20.903Z,39.53
2018-09-04T14:45:18.356Z,41.12
2018-09-04T14:50:16.393Z,42.52
2018-09-04T14:55:13.993Z,43.85
2018-09-04T15:00:11.470Z,42.38
2018-09-04T15:05:08.875Z,42.14
2018-09-04T15:10:06.436Z,41.31
2018-09-04T15:15:03.903Z,40.12
2018-09-04T15:20:01.303Z,41.33
2018-09-04T15:24:58.710Z,42.21
2018-09-04T15:29:56.139Z,40.48
2018-09-04T15:34:53.552Z,42.65
2018-09-04T15:39:50.944Z,42.52
2018-09-04T15:44:48.367Z,43.26
2018-09-04T15:49:47.011Z,43.07
2018-09-04T15:54:44.569Z,43.60
2018-09-04T15:59:42.055Z,43.67
2018-09-04T16:04:42.250Z,43.17
2018-09-04T16:09:39.760Z,44.25
2018-09-04T16:14:37.094Z,44.64
2018-09-04T16:19:34.551Z,44.76
2018-09-04T16:24:32.045Z,44.07
2018-09-04T16:29:29.433Z,44.13
2018-09-04T16:34:28.359Z,42.34
2018-09-04T16:39:31.727Z,42.85
2018-09-04T16:44:31.754Z,42.40
2018-09-04T16:49:29.307Z,43.78
2018-09-04T16:55:03.527Z,45.45
2018-09-04T17:00:03.225Z,46.82
2018-09-04T17:05:00.749Z,46.59
2018-09-04T17:09:59.223Z,46.75
2018-09-04T17:14:57.222Z,47.17
2018-09-04T17:19:55.701Z,45.19
2018-09-04T17:24:53.299Z,46.73
2018-09-04T17:29:50.744Z,48.42
2018-09-04T17:39:56.844Z,49.41
2018-09-04T17:44:54.270Z,50.21
2018-09-04T17:49:51.703Z,50.46
2018-09-04T17:54:49.202Z,50.84
2018-09-04T17:59:46.658Z,51.51
2018-09-04T18:04:44.132Z,52.51
2018-09-04T18:09:41.574Z,53.07
2018-09-04T18:14:39.039Z,53.14
2018-09-04T18:19:36.565Z,54.75
2018-09-04T18:24:34.240Z,56.65
2018-09-04T18:29:31.683Z,56.91
2018-09-04T18:34:29.191Z,58.19
2018-09-04T18:39:26.696Z,59.06
2018-09-04T18:44:24.143Z,59.18
2018-09-04T18:49:21.601Z,59.73
2018-09-04T18:54:19.017Z,61.34
2018-09-04T18:59:16.410Z,61.20
2018-09-04T19:04:13.830Z,61.70
2018-09-04T19:09:11.215Z,62.12
2018-09-04T19:14:08.705Z,62.62
2018-09-04T19:19:06.383Z,62.42
2018-09-04T19:24:04.094Z,61.15
2018-09-04T19:29:02.255Z,61.66
2018-09-04T19:33:59.668Z,63.11
2018-09-04T19:38:57.173Z,63.66
2018-09-04T19:43:54.638Z,64.01
2018-09-04T19:48:53.109Z,62.35
2018-09-04T19:53:50.500Z,62.68
2018-09-04T19:58:48.220Z,62.58
2018-09-04T20:03:45.680Z,62.13
2018-09-04T20:08:43.130Z,62.01
2018-09-04T20:13:40.556Z,61.58
2018-09-04T20:18:37.981Z,60.98
2018-09-04T20:23:35.396Z,61.64
2018-09-04T20:28:32.813Z,61.66
2018-09-04T20:33:30.887Z,61.10
2018-09-04T20:38:28.319Z,60.98
2018-09-04T20:43:25.764Z,62.29
2018-09-04T20:48:23.195Z,61.54
2018-09-04T20:53:20.928Z,62.39
2018-09-04T20:58:29.923Z,61.87
2018-09-04T21:03:38.693Z,62.14
2018-09-04T21:08:46.803Z,63.42
2018-09-04T21:13:44.207Z,63.30
2018-09-04T21:18:41.904Z,63.10
2018-09-04T21:23:39.312Z,62.06
2018-09-04T21:28:37.360Z,62.37
2018-09-04T21:33:34.812Z,63.34
2018-09-04T21:38:32.297Z,63.52
2018-09-04T21:43:29.714Z,63.91
2018-09-04T21:48:27.111Z,64.53
2018-09-04T21:53:24.571Z,64.66
2018-09-04T21:58:22.000Z,64.97
2018-09-04T22:03:19.435Z,64.88
2018-09-04T22:08:16.950Z,64.42
2018-09-04T22:13:14.391Z,65.12
2018-09-04T22:18:11.914Z,65.33
2018-09-04T22:23:09.379Z,64.93
2018-09-04T22:28:07.003Z,66.44
2018-09-04T22:33:04.412Z,67.27
2018-09-04T22:38:01.990Z,69.11
2018-09-04T22:42:59.605Z,70.08
2018-09-04T22:47:58.246Z,70.24
2018-09-04T22:52:55.635Z,71.40
2018-09-04T22:57:53.520Z,71.92
2018-09-04T23:02:50.914Z,73.25
2018-09-04T23:07:48.359Z,73.88
2018-09-04T23:12:45.803Z,74.95
2018-09-04T23:17:43.199Z,75.65
2018-09-04T23:22:40.678Z,75.63
2018-09-04T23:27:38.075Z,75.50
2018-09-04T23:32:35.489Z,76.83
2018-09-04T23:37:32.896Z,77.35
2018-09-04T23:42:32.147Z,77.84
2018-09-04T23:47:29.682Z,78.35
2018-09-04T23:52:27.082Z,78.75
2018-09-04T23:57:24.499Z,79.92
